Db24 — WCW6340 — position and weather

sailwx.info

Track history (hours):
 
Tides and Currents Weather Stations Pressure Air Temp Water Temp Dewpoint Dewpoint Depression Visibility Wind Speed Wind Dir Waves Ship Positions

Db24

Owner: THE DUTRA GROUP, SAN RAFAEL, CA. More information available from US FCC via Universal Licensing System.

Last reported at 2017-Nov-23 05:00 UTC. Time now 2017-Nov-23 05:08 UTC.
Position N 37°46' W 122°23'.

Length 53 m.

Type: Ship. MMSI: 338048555.

Date/timePositionNaut miles runAvg speedWind from/ knotsBaromVisibWave heightAir tempDewpointWater temp
2017-Nov-23 05:00N 37°46' W 122°23'1 2.1
2017-Nov-23 04:30N 37°45' W 122°23'0 0.0
2017-Nov-23 04:00N 37°45' W 122°23'514.9
2017-Nov-23 03:40N 37°49' W 122°19'0 0.0
2017-Nov-23 03:31N 37°49' W 122°19'54572.4
2017-Nov-23 03:30N 37°45' W 122°23'0 0.1
2017-Nov-23 03:00N 37°45' W 122°23'4944.8
2017-Nov-23 03:00N 37°49' W 122°20'1 1.6
2017-Nov-23 02:31N 37°48' W 122°21'46803.9
2017-Nov-23 02:30N 37°45' W 122°23'4 7.5
2017-Nov-23 02:00N 37°48' W 122°21'42264.7
2017-Nov-23 02:00N 37°45' W 122°23'4 7.5
2017-Nov-23 01:30N 37°48' W 122°21'41349.5
2017-Nov-23 01:30N 37°45' W 122°23'0 0.0
2017-Nov-23 01:01N 37°45' W 122°23'413475.2
2017-Nov-23 01:00N 37°48' W 122°21'0 0.0
2017-Nov-23 00:30N 37°48' W 122°21'41349.5
2017-Nov-23 00:30N 37°45' W 122°23'4 7.5
2017-Nov-23 00:00N 37°48' W 122°21'0 0.0
2017-Nov-22 23:30N 37°48' W 122°21'413475.2
2017-Nov-22 23:30N 37°45' W 122°23'4 7.5
2017-Nov-22 23:00N 37°48' W 122°21'4 7.5
2017-Nov-22 22:30N 37°45' W 122°23'413422.1
2017-Nov-22 22:30N 37°48' W 122°21'0 0.0
2017-Nov-22 22:00N 37°48' W 122°21'413402.5
2017-Nov-22 22:00N 37°45' W 122°23'4 7.4
2017-Nov-22 21:30N 37°48' W 122°21'4 7.4
2017-Nov-22 21:00N 37°45' W 122°23'44478.7
2017-Nov-22 21:00N 37°48' W 122°21'4 7.5
2017-Nov-22 20:30N 37°45' W 122°23'43368.8
2017-Nov-22 20:30N 37°48' W 122°21'4 7.5
2017-Nov-22 20:00N 37°45' W 122°23'43363.9
2017-Nov-22 20:00N 37°48' W 122°21'0 0.2
2017-Nov-22 19:30N 37°48' W 122°21'4834.5
2017-Nov-22 19:30N 37°45' W 122°23'  
2017-Nov-20 00:31N 37°48' W 122°21'41480.5
2017-Nov-20 00:30N 37°45' W 122°23'0 0.0
2017-Nov-20 00:01N 37°45' W 122°23'0 0.0
2017-Nov-19 23:31N 37°45' W 122°23'4 7.4
2017-Nov-19 23:00N 37°48' W 122°21'43326.2
2017-Nov-19 23:00N 37°45' W 122°23'4 7.4
2017-Nov-19 22:30N 37°48' W 122°21'43326.2
2017-Nov-19 22:30N 37°45' W 122°23'0 0.0
2017-Nov-19 22:00N 37°45' W 122°23'4782.6
2017-Nov-19 22:00N 37°48' W 122°21'4 7.5
2017-Nov-19 21:31N 37°45' W 122°23'43326.2
2017-Nov-19 21:30N 37°48' W 122°21'4 7.4
2017-Nov-19 21:01N 37°45' W 122°23'41476.1
2017-Nov-19 21:00N 37°48' W 122°21'4 7.4
2017-Nov-19 20:30N 37°45' W 122°23'41897.9
2017-Nov-19 20:30N 37°48' W 122°21'0 0.0
2017-Nov-19 20:01N 37°48' W 122°21'413285.1
2017-Nov-19 20:01N 37°45' W 122°23'4 7.4
2017-Nov-19 19:31N 37°48' W 122°21'44447.9
2017-Nov-19 19:30N 37°45' W 122°23'0 0.0
2017-Nov-19 19:00N 37°45' W 122°23'41903.5
2017-Nov-19 19:00N 37°48' W 122°21'4 7.4
2017-Nov-19 18:31N 37°45' W 122°23'46652.3
2017-Nov-19 18:30N 37°48' W 122°21'0 0.1
2017-Nov-19 18:01N 37°48' W 122°21'46642.5
2017-Nov-19 18:01N 37°45' W 122°23'4 7.4
2017-Nov-19 17:30N 37°48' W 122°21'44421.8
2017-Nov-19 17:30N 37°45' W 122°23'4 7.4
2017-Nov-19 17:00N 37°48' W 122°21'41660.6
2017-Nov-19 17:00N 37°45' W 122°23'4 7.5
2017-Nov-19 16:31N 37°48' W 122°21'413494.7
2017-Nov-19 16:31N 37°45' W 122°23'4 7.5
2017-Nov-19 16:01N 37°48' W 122°21'46757.1
2017-Nov-19 16:00N 37°45' W 122°23'0 0.0
2017-Nov-19 15:31N 37°45' W 122°23'41930.6
2017-Nov-19 15:30N 37°48' W 122°21'0 0.0
2017-Nov-19 15:00N 37°48' W 122°21'4899.6
2017-Nov-19 15:00N 37°45' W 122°23'4 7.5
2017-Nov-19 14:30N 37°48' W 122°21'44498.2
2017-Nov-19 14:30N 37°45' W 122°23'0 0.0
2017-Nov-19 14:00N 37°45' W 122°23'41927.8
2017-Nov-19 14:00N 37°48' W 122°21'0 0.0
2017-Nov-19 13:31N 37°48' W 122°21'46757.1
2017-Nov-19 13:30N 37°45' W 122°23'0 0.1
2017-Nov-19 13:01N 37°45' W 122°23'41673.8
2017-Nov-19 13:00N 37°48' W 122°21'4 7.5
2017-Nov-19 12:31N 37°45' W 122°23'41350.1
2017-Nov-19 12:30N 37°48' W 122°21'4 7.5
2017-Nov-19 12:00N 37°45' W 122°23'41691.7
2017-Nov-19 12:00N 37°48' W 122°21'0 0.1
2017-Nov-19 11:30N 37°48' W 122°21'41213.1
2017-Nov-19 11:30N 37°45' W 122°23'4 7.5
2017-Nov-19 11:00N 37°48' W 122°21'43293.6
2017-Nov-19 11:00N 37°45' W 122°23'0 0.0
2017-Nov-19 10:31N 37°45' W 122°23'413174.2
2017-Nov-19 10:31N 37°48' W 122°21'0 0.1
2017-Nov-19 10:01N 37°48' W 122°21'41011.1
2017-Nov-19 10:00N 37°45' W 122°23'0 0.0
2017-Nov-19 09:31N 37°45' W 122°23'4691.8
2017-Nov-19 09:30N 37°48' W 122°21'4 7.4
2017-Nov-19 09:01N 37°45' W 122°23'4 7.3
2017-Nov-19 08:31N 37°48' W 122°21'42176.0
2017-Nov-19 08:30N 37°45' W 122°23'0 0.0
2017-Nov-19 08:01N 37°45' W 122°23'4728.0
2017-Nov-19 08:00N 37°48' W 122°21'4 7.3
2017-Nov-19 07:30N 37°45' W 122°22'41446.3
2017-Nov-19 07:30N 37°48' W 122°21'0 0.0
2017-Nov-19 07:01N 37°48' W 122°21'42179.3
2017-Nov-19 07:00N 37°45' W 122°22'0 0.0
2017-Nov-19 06:31N 37°45' W 122°22'44365.3
2017-Nov-19 06:30N 37°48' W 122°21'4 7.3
2017-Nov-19 06:01N 37°45' W 122°22'46538.0
2017-Nov-19 06:00N 37°48' W 122°21'0 0.0
2017-Nov-19 05:31N 37°48' W 122°21'413076.1
2017-Nov-19 05:31N 37°45' W 122°22'4 7.3
2017-Nov-19 05:01N 37°48' W 122°21'44330.1
2017-Nov-19 05:00N 37°45' W 122°22'4 7.2
2017-Nov-19 04:30N 37°48' W 122°21'41438.9
2017-Nov-19 04:30N 37°45' W 122°22'4 7.3
2017-Nov-19 04:01N 37°48' W 122°21'41311.0
2017-Nov-19 04:00N 37°45' W 122°22'4 7.3
2017-Nov-19 03:30N 37°48' W 122°21'4930.5
2017-Nov-19 03:30N 37°45' W 122°22'0 0.2
2017-Nov-19 03:00N 37°45' W 122°22'4816.0
2017-Nov-19 03:00N 37°48' W 122°21'0 0.0
2017-Nov-19 02:30N 37°48' W 122°21'46508.2
2017-Nov-19 02:30N 37°45' W 122°22'0 0.1
2017-Nov-19 02:01N 37°45' W 122°23'42225.2
2017-Nov-19 02:00N 37°48' W 122°21'0 0.0
2017-Nov-19 01:31N 37°48' W 122°21'413351.3
2017-Nov-19 01:31N 37°45' W 122°23'4 7.4
2017-Nov-19 01:00N 37°48' W 122°21'44450.4
2017-Nov-19 01:00N 37°45' W 122°23'0 0.0
2017-Nov-19 00:30N 37°45' W 122°23'44457.0
2017-Nov-19 00:30N 37°48' W 122°21'0 0.0
2017-Nov-19 00:01N 37°48' W 122°21'0 0.0
2017-Nov-18 23:31N 37°48' W 122°21'41893.3
2017-Nov-18 23:30N 37°45' W 122°23'4 7.2
2017-Nov-18 23:01N 37°48' W 122°21'4858.5
2017-Nov-18 23:00N 37°45' W 122°23'0 0.0
2017-Nov-18 22:31N 37°45' W 122°23'4857.2
2017-Nov-18 22:30N 37°48' W 122°21'0 0.0
2017-Nov-18 22:00N 37°48' W 122°21'412877.6
2017-Nov-18 22:00N 37°45' W 122°23'0 0.0
2017-Nov-18 21:31N 37°45' W 122°23'44279.3
2017-Nov-18 21:30N 37°48' W 122°21'4 7.1
2017-Nov-18 21:01N 37°45' W 122°23'42547.8
2017-Nov-18 21:00N 37°48' W 122°21'0 0.0
2017-Nov-18 20:31N 37°48' W 122°21'46384.6
2017-Nov-18 20:30N 37°45' W 122°23'0 0.1
2017-Nov-18 20:00N 37°45' W 122°23'4578.6
2017-Nov-18 20:00N 37°48' W 122°21'0 0.0
2017-Nov-18 19:30N 37°48' W 122°21'46315.9
2017-Nov-18 19:30N 37°45' W 122°23'4 7.0
2017-Nov-18 19:00N 37°48' W 122°21'46342.4
2017-Nov-18 19:00N 37°45' W 122°23'0 0.0
2017-Nov-18 18:31N 37°45' W 122°23'42521.4
2017-Nov-18 18:30N 37°48' W 122°21'0 0.0
2017-Nov-18 18:00N 37°48' W 122°21'3831.7
2017-Nov-18 18:00N 37°45' W 122°23'3 7.0
2017-Nov-18 17:30N 37°48' W 122°21'0 0.1
2017-Nov-18 17:00N 37°48' W 122°21'3540.1
2017-Nov-18 17:00N 37°45' W 122°23'0 0.0
2017-Nov-18 16:30N 37°45' W 122°23'312443.0
2017-Nov-18 16:30N 37°48' W 122°21'3 7.0
2017-Nov-18 16:01N 37°45' W 122°23'33125.5
2017-Nov-18 16:00N 37°48' W 122°21'0 0.0
2017-Nov-18 15:30N 37°48' W 122°21'32079.2
2017-Nov-18 15:30N 37°45' W 122°23'4 7.0
2017-Nov-18 15:00N 37°48' W 122°21'31778.8
2017-Nov-18 15:00N 37°45' W 122°23'4 7.1
2017-Nov-18 14:30N 37°48' W 122°21'41828.8
2017-Nov-18 14:30N 37°45' W 122°23'0 0.1
2017-Nov-18 14:01N 37°45' W 122°23'44306.4
2017-Nov-18 14:00N 37°48' W 122°21'4 7.2
2017-Nov-18 13:31N 37°45' W 122°23'43234.7
2017-Nov-18 13:30N 37°48' W 122°21'0 0.0
2017-Nov-18 13:00N 37°48' W 122°21'41295.8
2017-Nov-18 13:00N 37°45' W 122°23'0 0.0
2017-Nov-18 12:31N 37°45' W 122°23'46525.4
2017-Nov-18 12:30N 37°48' W 122°21'4 7.3
2017-Nov-18 12:01N 37°45' W 122°23'42614.0
2017-Nov-18 12:00N 37°48' W 122°21'4 7.2
2017-Nov-18 11:31N 37°45' W 122°23'32518.5
2017-Nov-18 11:30N 37°48' W 122°21'0 0.0
2017-Nov-18 11:01N 37°48' W 122°21'4258.2
2017-Nov-18 11:00N 37°45' W 122°23'0 0.0
2017-Nov-18 10:31N 37°45' W 122°23'44217.1
2017-Nov-18 10:30N 37°48' W 122°21'0 0.0
2017-Nov-18 10:01N 37°48' W 122°21'4844.7
2017-Nov-18 10:00N 37°45' W 122°23'0 0.0
2017-Nov-18 09:31N 37°45' W 122°23'4906.5
2017-Nov-18 09:30N 37°48' W 122°21'0 0.2
2017-Nov-18 09:00N 37°48' W 122°21'413095.6
2017-Nov-18 09:00N 37°45' W 122°23'4 7.3
2017-Nov-18 08:31N 37°48' W 122°21'4569.1
2017-Nov-18 08:30N 37°45' W 122°23'0 0.0
2017-Nov-18 08:01N 37°45' W 122°23'43248.1
2017-Nov-18 08:00N 37°48' W 122°21'0 0.2
2017-Nov-18 07:31N 37°48' W 122°21'4 7.1
2017-Nov-18 07:01N 37°45' W 122°23'42124.9
2017-Nov-18 07:00N 37°48' W 122°21'0 0.0
2017-Nov-18 06:30N 37°48' W 122°21'42546.0
2017-Nov-18 06:30N 37°45' W 122°23'0 0.2
2017-Nov-18 06:01N 37°45' W 122°23'43209.5
2017-Nov-18 06:00N 37°48' W 122°21'4 7.2
2017-Nov-18 05:31N 37°45' W 122°23'43271.1
2017-Nov-18 05:30N 37°48' W 122°21'4 7.4
2017-Nov-18 05:01N 37°45' W 122°23'46725.0
2017-Nov-18 05:00N 37°48' W 122°21'4 7.5
2017-Nov-18 04:31N 37°45' W 122°23'44483.3
2017-Nov-18 04:30N 37°48' W 122°21'0 0.0
2017-Nov-18 04:00N 37°48' W 122°21'46734.9
2017-Nov-18 04:00N 37°45' W 122°23'0 0.0
2017-Nov-18 03:31N 37°45' W 122°23'42690.0
2017-Nov-18 03:30N 37°48' W 122°21'0 0.0
2017-Nov-18 03:00N 37°48' W 122°21'41918.6
2017-Nov-18 03:00N 37°45' W 122°23'4 7.5
2017-Nov-18 02:30N 37°48' W 122°21'42686.0
2017-Nov-18 02:30N 37°45' W 122°23'0 0.0
2017-Nov-18 02:01N 37°45' W 122°23'413481.0
2017-Nov-18 02:01N 37°48' W 122°21'4 7.5
2017-Nov-18 01:31N 37°45' W 122°23'44500.2
2017-Nov-18 01:30N 37°48' W 122°21'0 0.0
2017-Nov-18 01:00N 37°48' W 122°21'4562.5
2017-Nov-18 01:00N 37°45' W 122°23'0 0.0
2017-Nov-18 00:31N 37°45' W 122°23'42700.1
2017-Nov-18 00:30N 37°48' W 122°21'4 7.5
2017-Nov-18 00:01N 37°45' W 122°23'43370.2
2017-Nov-18 00:00N 37°48' W 122°21'4 7.5
2017-Nov-17 23:31N 37°45' W 122°23'413422.1
2017-Nov-17 23:31N 37°48' W 122°21'4 7.4
2017-Nov-17 23:01N 37°45' W 122°23'413351.4
2017-Nov-17 23:01N 37°48' W 122°21'4 7.4
2017-Nov-17 22:31N 37°45' W 122°23'42672.7
2017-Nov-17 22:30N 37°48' W 122°21'4 7.4
2017-Nov-17 22:01N 37°45' W 122°23'413382.9
2017-Nov-17 22:01N 37°48' W 122°21'4 7.5
2017-Nov-17 21:30N 37°45' W 122°23'46708.4
2017-Nov-17 21:30N 37°48' W 122°21'4 7.5
2017-Nov-17 21:01N 37°45' W 122°23'41452.9
2017-Nov-17 21:00N 37°48' W 122°21'0 0.1
2017-Nov-17 20:30N 37°48' W 122°21'4690.0
2017-Nov-17 20:30N 37°45' W 122°23'4 7.4
2017-Nov-17 20:00N 37°48' W 122°21'0 0.0
2017-Nov-17 19:30N 37°48' W 122°21'4931.2
2017-Nov-17 19:30N 37°45' W 122°23'4 7.3
2017-Nov-17 19:00N 37°48' W 122°21'46498.8
2017-Nov-17 19:00N 37°45' W 122°23'4 7.4
2017-Nov-17 18:31N 37°48' W 122°21'42679.5
2017-Nov-17 18:30N 37°45' W 122°23'0 0.0
2017-Nov-17 18:01N 37°45' W 122°23'4710.2
2017-Nov-17 18:00N 37°48' W 122°21'0 0.0
2017-Nov-17 17:30N 37°48' W 122°21'46711.1
2017-Nov-17 17:30N 37°45' W 122°23'4 7.5
2017-Nov-17 17:00N 37°48' W 122°21'44500.2
2017-Nov-17 17:00N 37°45' W 122°23'4 7.5
2017-Nov-17 16:30N 37°48' W 122°21'0 0.0
2017-Nov-17 16:01N 37°48' W 122°21'41225.5
2017-Nov-17 16:00N 37°45' W 122°23'0 0.1
2017-Nov-17 15:31N 37°45' W 122°23'413371.1
2017-Nov-17 15:31N 37°48' W 122°21'4 7.4
2017-Nov-17 15:01N 37°45' W 122°23'41670.4
2017-Nov-17 15:00N 37°48' W 122°21'0 0.1
2017-Nov-17 14:30N 37°48' W 122°21'44472.2
2017-Nov-17 14:30N 37°45' W 122°23'4 7.5
2017-Nov-17 14:01N 37°48' W 122°21'4705.1
2017-Nov-17 14:00N 37°45' W 122°23'0 0.0
2017-Nov-17 13:31N 37°45' W 122°23'41473.9
2017-Nov-17 13:30N 37°48' W 122°21'0 0.0
2017-Nov-17 13:01N 37°48' W 122°21'41471.8
2017-Nov-17 13:00N 37°45' W 122°23'4 7.3
2017-Nov-17 12:30N 37°48' W 122°21'413206.8
2017-Nov-17 12:30N 37°45' W 122°23'4 7.4
2017-Nov-17 12:00N 37°48' W 122°21'413324.2
2017-Nov-17 12:00N 37°45' W 122°23'0 0.0
2017-Nov-17 11:31N 37°45' W 122°23'413285.0
2017-Nov-17 11:31N 37°48' W 122°21'0 0.0
2017-Nov-17 11:00N 37°48' W 122°21'413265.5
2017-Nov-17 11:00N 37°45' W 122°23'0 0.0
2017-Nov-17 10:31N 37°45' W 122°23'41653.3
2017-Nov-17 10:30N 37°48' W 122°21'0 0.0
2017-Nov-17 10:01N 37°48' W 122°21'413134.9
2017-Nov-17 10:01N 37°45' W 122°23'4 7.3
2017-Nov-17 09:31N 37°48' W 122°21'4 7.3
2017-Nov-17 09:01N 37°45' W 122°23'41457.3
2017-Nov-17 09:00N 37°48' W 122°21'4 7.3
2017-Nov-17 08:30N 37°45' W 122°23'41873.6
2017-Nov-17 08:30N 37°48' W 122°21'4 7.3
2017-Nov-17 08:00N 37°45' W 122°23'41646.8
2017-Nov-17 08:00N 37°48' W 122°21'4 7.3
2017-Nov-17 07:30N 37°45' W 122°23'44391.4
2017-Nov-17 07:30N 37°48' W 122°21'4 7.3
2017-Nov-17 07:00N 37°45' W 122°22'41633.1
2017-Nov-17 07:00N 37°48' W 122°21'4 7.3
2017-Nov-17 06:31N 37°45' W 122°22'41630.6
2017-Nov-17 06:30N 37°48' W 122°21'0 0.0
2017-Nov-17 06:01N 37°48' W 122°21'4 7.2
2017-Nov-17 05:30N 37°45' W 122°22'41453.8
2017-Nov-17 05:30N 37°48' W 122°21'0 0.0
2017-Nov-17 05:00N 37°48' W 122°21'4652.3
2017-Nov-17 05:00N 37°45' W 122°22'4 7.4
2017-Nov-17 04:31N 37°48' W 122°21'42199.0
2017-Nov-17 04:30N 37°45' W 122°23'0 0.1
2017-Nov-17 04:01N 37°45' W 122°22'4936.0
2017-Nov-17 04:00N 37°48' W 122°21'4 7.3
2017-Nov-17 03:31N 37°45' W 122°22'4694.4
2017-Nov-17 03:30N 37°48' W 122°21'4 7.4
2017-Nov-17 03:01N 37°45' W 122°22'4264.3
2017-Nov-17 03:00N 37°48' W 122°21'0 0.0
2017-Nov-17 02:31N 37°48' W 122°21'42656.5
2017-Nov-17 02:30N 37°45' W 122°22'4 7.4
2017-Nov-17 02:00N 37°48' W 122°21'0 0.0
2017-Nov-17 01:30N 37°48' W 122°21'44418.4
2017-Nov-17 01:30N 37°45' W 122°22'4 7.4
2017-Nov-17 01:01N 37°48' W 122°21'4416.3
2017-Nov-17 01:00N 37°45' W 122°22'0 0.0
2017-Nov-17 00:31N 37°45' W 122°22'43315.7
2017-Nov-17 00:30N 37°48' W 122°21'0 0.0
2017-Nov-17 00:00N 37°48' W 122°21'44443.9
2017-Nov-17 00:00N 37°45' W 122°23'4 7.4
2017-Nov-16 23:31N 37°48' W 122°21'413292.3
2017-Nov-16 23:31N 37°45' W 122°23'0 0.0
2017-Nov-16 23:01N 37°45' W 122°23'413272.6
2017-Nov-16 23:01N 37°48' W 122°21'4 7.4
2017-Nov-16 22:31N 37°45' W 122°23'44424.2
2017-Nov-16 22:30N 37°48' W 122°21'0 0.0
2017-Nov-16 22:01N 37°48' W 122°21'4883.5
2017-Nov-16 22:00N 37°45' W 122°23'4 7.4
2017-Nov-16 21:30N 37°48' W 122°21'41011.9
2017-Nov-16 21:30N 37°45' W 122°23'4 7.4
2017-Nov-16 21:00N 37°48' W 122°21'0 0.0
2017-Nov-16 20:31N 37°48' W 122°21'44384.9
2017-Nov-16 20:30N 37°45' W 122°23'4 7.3
2017-Nov-16 20:01N 37°48' W 122°21'413115.3
2017-Nov-16 20:00N 37°45' W 122°23'0 0.1
2017-Nov-16 19:31N 37°45' W 122°22'42616.9
2017-Nov-16 19:30N 37°48' W 122°21'4 7.3
2017-Nov-16 19:01N 37°45' W 122°22'413084.6
2017-Nov-16 19:01N 37°48' W 122°21'0 0.0
2017-Nov-16 18:31N 37°48' W 122°21'41013.4
2017-Nov-16 18:30N 37°45' W 122°23'0 0.0
2017-Nov-16 18:01N 37°45' W 122°23'413174.2
2017-Nov-16 18:01N 37°48' W 122°21'4 7.3
2017-Nov-16 17:31N 37°45' W 122°22'413064.8
2017-Nov-16 17:31N 37°48' W 122°21'0 0.0
2017-Nov-16 17:00N 37°48' W 122°21'412976.8
2017-Nov-16 17:00N 37°45' W 122°22'4 7.2
2017-Nov-16 16:30N 37°48' W 122°21'43288.6
2017-Nov-16 16:30N 37°45' W 122°23'0 0.0
2017-Nov-16 16:01N 37°45' W 122°23'413245.9
2017-Nov-16 16:01N 37°48' W 122°21'4 7.4
2017-Nov-16 15:31N 37°45' W 122°23'42201.1
2017-Nov-16 15:30N 37°48' W 122°21'4 7.4
2017-Nov-16 15:01N 37°45' W 122°23'46656.0
2017-Nov-16 15:01N 37°48' W 122°21'0 0.0
2017-Nov-16 14:30N 37°48' W 122°21'42656.5
2017-Nov-16 14:30N 37°45' W 122°22'4 7.4
2017-Nov-16 14:00N 37°48' W 122°21'4881.0
2017-Nov-16 14:00N 37°45' W 122°22'4 7.4
2017-Nov-16 13:31N 37°48' W 122°21'44411.7
2017-Nov-16 13:30N 37°45' W 122°22'0 0.0
2017-Nov-16 13:00N 37°45' W 122°22'4776.2
2017-Nov-16 13:00N 37°48' W 122°21'0 0.0
2017-Nov-16 12:30N 37°48' W 122°21'0 0.0
2017-Nov-16 12:00N 37°48' W 122°21'4393.0
2017-Nov-16 12:00N 37°45' W 122°22'4 7.6
2017-Nov-16 11:30N 37°48' W 122°21'44453.9
2017-Nov-16 11:30N 37°45' W 122°22'4 7.4
2017-Nov-16 11:01N 37°48' W 122°21'44447.3
2017-Nov-16 11:00N 37°45' W 122°22'4 7.4
2017-Nov-16 10:31N 37°48' W 122°21'4783.6
2017-Nov-16 10:30N 37°45' W 122°22'4 7.5
2017-Nov-16 10:01N 37°48' W 122°21'43342.8
2017-Nov-16 10:00N 37°45' W 122°23'4 7.4
2017-Nov-16 09:31N 37°48' W 122°21'41213.8
2017-Nov-16 09:30N 37°45' W 122°23'0 0.0
2017-Nov-16 09:01N 37°45' W 122°23'43332.9
2017-Nov-16 09:00N 37°48' W 122°21'4 7.4
2017-Nov-16 08:31N 37°45' W 122°23'42662.4
2017-Nov-16 08:30N 37°48' W 122°21'0 0.0
2017-Nov-16 08:00N 37°48' W 122°21'42644.6
2017-Nov-16 08:00N 37°45' W 122°22'4 7.4
2017-Nov-16 07:31N 37°48' W 122°21'42654.5
2017-Nov-16 07:30N 37°45' W 122°22'4 7.4
2017-Nov-16 07:00N 37°48' W 122°21'42654.5
2017-Nov-16 07:00N 37°45' W 122°22'4 7.4
2017-Nov-16 06:30N 37°48' W 122°21'42650.6
2017-Nov-16 06:30N 37°45' W 122°22'4 7.4
2017-Nov-16 06:00N 37°48' W 122°21'42205.5
2017-Nov-16 06:00N 37°45' W 122°22'4 7.3
2017-Nov-16 05:30N 37°48' W 122°21'4824.6
2017-Nov-16 05:30N 37°45' W 122°22'4 7.5
2017-Nov-16 05:01N 37°48' W 122°21'42197.2
2017-Nov-16 05:00N 37°45' W 122°22'0 0.0
2017-Nov-16 04:31N 37°45' W 122°22'413262.6
2017-Nov-16 04:31N 37°48' W 122°21'0 0.0
2017-Nov-16 04:00N 37°48' W 122°21'413282.4
2017-Nov-16 04:00N 37°45' W 122°22'4 7.4
2017-Nov-16 03:30N 37°48' W 122°21'42656.5
2017-Nov-16 03:30N 37°45' W 122°22'4 7.4
2017-Nov-16 03:01N 37°48' W 122°21'42217.0
2017-Nov-16 03:00N 37°45' W 122°22'0 0.1
2017-Nov-16 02:31N 37°45' W 122°22'46665.8
2017-Nov-16 02:31N 37°48' W 122°21'0 0.0
2017-Nov-16 02:00N 37°48' W 122°21'43335.9
2017-Nov-16 02:00N 37°45' W 122°23'4 7.5
2017-Nov-16 01:31N 37°48' W 122°21'4 7.4
2017-Nov-16 01:00N 37°45' W 122°23'41219.7
2017-Nov-16 01:00N 37°48' W 122°21'4 7.5
2017-Nov-16 00:30N 37°45' W 122°23'4958.3
2017-Nov-16 00:30N 37°48' W 122°21'4 7.5
2017-Nov-16 00:01N 37°45' W 122°23'42229.6
2017-Nov-16 00:00N 37°48' W 122°21'0 0.1
2017-Nov-15 23:31N 37°48' W 122°21'4781.2
2017-Nov-15 23:30N 37°45' W 122°23'0 0.0
2017-Nov-15 23:01N 37°45' W 122°23'4 7.4
2017-Nov-15 22:31N 37°48' W 122°21'4379.4
2017-Nov-15 22:30N 37°45' W 122°23'4 7.5
2017-Nov-15 22:01N 37°48' W 122°21'413222.3
2017-Nov-15 22:01N 37°45' W 122°23'4 7.3
2017-Nov-15 21:30N 37°48' W 122°21'4250.2
2017-Nov-15 21:29N 37°45' W 122°23'4 7.6
2017-Nov-15 21:01N 37°48' W 122°21'0 0.0
2017-Nov-15 20:31N 37°48' W 122°21'43291.0
2017-Nov-15 20:30N 37°45' W 122°23'4 7.5
2017-Nov-15 20:01N 37°48' W 122°21'4534.5
2017-Nov-15 20:00N 37°45' W 122°23'4 7.5
2017-Nov-15 19:31N 37°48' W 122°21'4667.2
2017-Nov-15 19:30N 37°45' W 122°23'4 7.5
2017-Nov-15 19:01N 37°48' W 122°21'4890.9
2017-Nov-15 19:00N 37°45' W 122°23'4 7.5
2017-Nov-15 18:31N 37°48' W 122°21'0 0.1
2017-Nov-15 18:01N 37°48' W 122°21'41337.8
2017-Nov-15 18:00N 37°45' W 122°23'0 0.0
2017-Nov-15 17:31N 37°45' W 122°23'4785.8
2017-Nov-15 17:30N 37°48' W 122°21'4 7.5
2017-Nov-15 17:01N 37°45' W 122°23'41905.6
2017-Nov-15 17:00N 37°48' W 122°21'0 0.0
2017-Nov-15 16:31N 37°48' W 122°21'42207.7
2017-Nov-15 16:30N 37°45' W 122°23'0 0.1
2017-Nov-15 16:00N 37°45' W 122°23'413338.9
2017-Nov-15 16:00N 37°48' W 122°21'0 0.1
2017-Nov-15 15:31N 37°48' W 122°21'0 0.0
2017-Nov-15 15:00N 37°48' W 122°21'46593.7
2017-Nov-15 15:00N 37°45' W 122°23'0 0.0
2017-Nov-15 14:31N 37°45' W 122°23'4 7.3
2017-Nov-15 14:01N 37°48' W 122°21'4877.9
2017-Nov-15 14:00N 37°45' W 122°23'0 0.0
2017-Nov-15 13:30N 37°45' W 122°23'42633.6
2017-Nov-15 13:30N 37°48' W 122°21'4 7.3
2017-Nov-15 13:00N 37°45' W 122°23'41878.3
2017-Nov-15 13:00N 37°48' W 122°21'0 0.1
2017-Nov-15 12:31N 37°48' W 122°21'41111.6
2017-Nov-15 12:30N 37°45' W 122°23'0 0.0
2017-Nov-15 12:00N 37°45' W 122°23'41195.3
2017-Nov-15 12:00N 37°48' W 122°21'4 7.4
2017-Nov-15 11:30N 37°45' W 122°23'4691.0
2017-Nov-15 11:30N 37°48' W 122°21'4 7.4
2017-Nov-15 11:01N 37°45' W 122°23'413202.9
2017-Nov-15 11:01N 37°48' W 122°21'4 7.3
2017-Nov-15 10:31N 37°45' W 122°23'42636.7
2017-Nov-15 10:30N 37°48' W 122°21'4 7.3
2017-Nov-15 10:00N 37°45' W 122°23'41883.9
2017-Nov-15 10:00N 37°48' W 122°21'4 7.4
2017-Nov-15 09:31N 37°45' W 122°23'42197.9
2017-Nov-15 09:30N 37°48' W 122°21'0 0.0
2017-Nov-15 09:00N 37°48' W 122°21'46583.9
2017-Nov-15 09:00N 37°45' W 122°23'4 7.3
2017-Nov-15 08:31N 37°48' W 122°21'41197.1
2017-Nov-15 08:30N 37°45' W 122°23'4 7.3
2017-Nov-15 08:01N 37°48' W 122°21'41878.3
2017-Nov-15 08:00N 37°45' W 122°23'4 7.3
2017-Nov-15 07:31N 37°48' W 122°21'41875.5
2017-Nov-15 07:30N 37°45' W 122°23'4 7.3
2017-Nov-15 07:01N 37°48' W 122°21'4 7.2
2017-Nov-15 06:30N 37°45' W 122°23'46564.4
2017-Nov-15 06:30N 37°48' W 122°21'0 0.0
2017-Nov-15 06:01N 37°48' W 122°21'4 7.3
2017-Nov-15 05:30N 37°45' W 122°23'43282.2
2017-Nov-15 05:30N 37°48' W 122°21'0 0.1
2017-Nov-15 05:00N 37°48' W 122°21'46544.9
2017-Nov-15 05:00N 37°45' W 122°23'4 7.3
2017-Nov-15 04:31N 37°48' W 122°21'413300.0
2017-Nov-15 04:31N 37°45' W 122°23'0 0.0
2017-Nov-15 04:00N 37°45' W 122°23'44510.1
2017-Nov-15 04:00N 37°48' W 122°21'4 7.5
2017-Nov-15 03:30N 37°45' W 122°23'413436.2
2017-Nov-15 03:30N 37°48' W 122°21'0 0.0
2017-Nov-15 03:01N 37°48' W 122°21'0 0.0
2017-Nov-15 02:31N 37°48' W 122°21'4672.6
2017-Nov-15 02:30N 37°45' W 122°23'4 7.5
2017-Nov-15 02:01N 37°48' W 122°21'42686.7
2017-Nov-15 02:00N 37°45' W 122°23'4 7.5
2017-Nov-15 01:31N 37°48' W 122°21'4671.7
2017-Nov-15 01:30N 37°45' W 122°23'4 7.5
2017-Nov-15 01:01N 37°48' W 122°21'4243.9
2017-Nov-15 01:00N 37°45' W 122°23'0 0.0
2017-Nov-15 00:31N 37°45' W 122°23'41217.7
2017-Nov-15 00:30N 37°48' W 122°21'0 0.0
2017-Nov-15 00:01N 37°48' W 122°21'4888.0
2017-Nov-15 00:00N 37°45' W 122°23'4 7.5
2017-Nov-14 23:31N 37°48' W 122°21'0 0.0
2017-Nov-14 23:00N 37°48' W 122°21'42633.6
2017-Nov-14 23:00N 37°45' W 122°23'4 7.5
2017-Nov-14 22:31N 37°48' W 122°21'42217.4
2017-Nov-14 22:30N 37°45' W 122°23'0 0.0
2017-Nov-14 22:00N 37°45' W 122°23'42645.3
2017-Nov-14 22:00N 37°48' W 122°21'0 0.0
2017-Nov-14 21:31N 37°48' W 122°21'4 7.3
2017-Nov-14 21:01N 37°45' W 122°23'4778.0
2017-Nov-14 21:00N 37°48' W 122°21'4 7.4
2017-Nov-14 20:31N 37°45' W 122°23'41471.8
2017-Nov-14 20:30N 37°48' W 122°21'4 7.4
2017-Nov-14 20:01N 37°45' W 122°23'4601.2
2017-Nov-14 20:00N 37°48' W 122°21'0 0.0
2017-Nov-14 19:30N 37°48' W 122°21'413226.4
2017-Nov-14 19:30N 37°45' W 122°23'4 7.4
2017-Nov-14 19:00N 37°48' W 122°21'41017.4
2017-Nov-14 19:00N 37°45' W 122°23'0 0.0
2017-Nov-14 18:30N 37°45' W 122°23'413226.4
2017-Nov-14 18:30N 37°48' W 122°21'4 7.4
2017-Nov-14 18:00N 37°45' W 122°23'46613.2
2017-Nov-14 18:00N 37°48' W 122°21'4 7.4
2017-Nov-14 17:31N 37°45' W 122°23'41875.5
2017-Nov-14 17:30N 37°48' W 122°21'4 7.3
2017-Nov-14 17:00N 37°45' W 122°23'4825.2
2017-Nov-14 17:00N 37°48' W 122°21'0 0.2
2017-Nov-14 16:30N 37°48' W 122°21'42179.3
2017-Nov-14 16:30N 37°45' W 122°23'4 7.3
2017-Nov-14 16:00N 37°48' W 122°21'41195.3
2017-Nov-14 16:00N 37°45' W 122°23'4 7.4
2017-Nov-14 15:30N 37°48' W 122°21'41097.3
2017-Nov-14 15:30N 37°45' W 122°23'0 0.0
2017-Nov-14 15:00N 37°45' W 122°23'413148.3
2017-Nov-14 15:00N 37°48' W 122°21'4 7.3
2017-Nov-14 14:30N 37°45' W 122°23'41872.8
2017-Nov-14 14:30N 37°48' W 122°21'0 0.0
2017-Nov-14 14:00N 37°48' W 122°21'44382.8
2017-Nov-14 14:00N 37°45' W 122°23'0 0.0
2017-Nov-14 13:31N 37°45' W 122°23'4345.0
2017-Nov-14 13:30N 37°48' W 122°21'0 0.0
2017-Nov-14 13:00N 37°48' W 122°21'43272.4
2017-Nov-14 13:00N 37°45' W 122°23'4 7.3
2017-Nov-14 12:31N 37°48' W 122°21'42194.0
2017-Nov-14 12:30N 37°45' W 122°23'4 7.3
2017-Nov-14 12:01N 37°48' W 122°21'43264.1
2017-Nov-14 12:00N 37°45' W 122°23'4 7.3
2017-Nov-14 11:31N 37°48' W 122°21'46554.6
2017-Nov-14 11:30N 37°45' W 122°23'4 7.3
2017-Nov-14 11:01N 37°48' W 122°21'43269.0
2017-Nov-14 11:00N 37°45' W 122°23'0 0.0
2017-Nov-14 10:31N 37°45' W 122°23'46564.4
2017-Nov-14 10:31N 37°48' W 122°21'4 7.3
2017-Nov-14 10:01N 37°45' W 122°23'41312.9
2017-Nov-14 10:00N 37°48' W 122°21'4 7.3
2017-Nov-14 09:31N 37°45' W 122°23'41191.8
2017-Nov-14 09:30N 37°48' W 122°21'0 0.0
2017-Nov-14 09:00N 37°48' W 122°21'41092.4
2017-Nov-14 09:00N 37°45' W 122°23'0 0.0
2017-Nov-14 08:30N 37°45' W 122°23'43267.6
2017-Nov-14 08:30N 37°48' W 122°21'4 7.3
2017-Nov-14 08:01N 37°45' W 122°23'44356.8
2017-Nov-14 08:00N 37°48' W 122°21'0 0.0
2017-Nov-14 07:31N 37°48' W 122°21'43262.7
2017-Nov-14 07:30N 37°45' W 122°23'4 7.3
2017-Nov-14 07:01N 37°48' W 122°21'42178.4
2017-Nov-14 07:00N 37°45' W 122°23'4 7.3
2017-Nov-14 06:30N 37°48' W 122°21'41305.1
2017-Nov-14 06:30N 37°45' W 122°23'4 7.3
2017-Nov-14 06:00N 37°48' W 122°21'41008.2
2017-Nov-14 06:00N 37°45' W 122°23'0 0.1
2017-Nov-14 05:31N 37°45' W 122°23'41002.8
2017-Nov-14 05:30N 37°48' W 122°21'4 7.3
2017-Nov-14 05:01N 37°45' W 122°23'41658.2
2017-Nov-14 05:00N 37°48' W 122°21'0 0.0
2017-Nov-14 04:30N 37°48' W 122°21'413213.6
2017-Nov-14 04:30N 37°45' W 122°22'0 0.0
2017-Nov-14 04:00N 37°45' W 122°22'4 7.3
2017-Nov-14 03:30N 37°48' W 122°21'41206.0
2017-Nov-14 03:30N 37°45' W 122°23'4 7.4
2017-Nov-14 03:00N 37°48' W 122°21'413358.4
2017-Nov-14 03:00N 37°45' W 122°23'4 7.4
2017-Nov-14 02:30N 37°48' W 122°21'42675.6
2017-Nov-14 02:30N 37°45' W 122°23'4 7.5
2017-Nov-14 02:00N 37°48' W 122°21'42675.6
2017-Nov-14 02:00N 37°45' W 122°23'4 7.4
2017-Nov-14 01:30N 37°48' W 122°21'44459.3
2017-Nov-14 01:30N 37°45' W 122°23'4 7.4
2017-Nov-14 01:00N 37°48' W 122°21'44452.8
2017-Nov-14 01:00N 37°45' W 122°23'0 0.0
2017-Nov-14 00:31N 37°45' W 122°23'41337.8
2017-Nov-14 00:30N 37°48' W 122°21'4 7.5
2017-Nov-14 00:01N 37°45' W 122°23'413377.8
2017-Nov-14 00:01N 37°48' W 122°21'0 0.0
2017-Nov-13 23:30N 37°48' W 122°21'42671.7
2017-Nov-13 23:30N 37°45' W 122°23'4 7.5
2017-Nov-13 23:01N 37°48' W 122°21'42229.6
2017-Nov-13 23:00N 37°45' W 122°23'4 7.5
2017-Nov-13 22:31N 37°48' W 122°21'41672.2
2017-Nov-13 22:30N 37°45' W 122°23'4 7.5
2017-Nov-13 22:00N 37°48' W 122°21'44459.3
2017-Nov-13 22:00N 37°45' W 122°23'  
Track history (hours):
 
Tides and Currents Weather Stations Pressure Air Temp Water Temp Dewpoint Dewpoint Depression Visibility Wind Speed Wind Dir Waves Ship Positions

Db24

Owner: THE DUTRA GROUP, SAN RAFAEL, CA. More information available from US FCC via Universal Licensing System.

Last reported at 2017-Nov-23 05:00 UTC. Time now 2017-Nov-23 05:08 UTC.
Position N 37°46' W 122°23'.

Length 53 m.

Type: Ship. MMSI: 338048555.

Date/timePositionNaut miles runAvg speedWind from/ knotsBaromVisibWave heightAir tempDewpointWater temp
2017-Nov-23 05:00N 37°46' W 122°23'1 2.1
2017-Nov-23 04:30N 37°45' W 122°23'0 0.0
2017-Nov-23 04:00N 37°45' W 122°23'514.9
2017-Nov-23 03:40N 37°49' W 122°19'0 0.0
2017-Nov-23 03:31N 37°49' W 122°19'54572.4
2017-Nov-23 03:30N 37°45' W 122°23'0 0.1
2017-Nov-23 03:00N 37°45' W 122°23'4944.8
2017-Nov-23 03:00N 37°49' W 122°20'1 1.6
2017-Nov-23 02:31N 37°48' W 122°21'46803.9
2017-Nov-23 02:30N 37°45' W 122°23'4 7.5
2017-Nov-23 02:00N 37°48' W 122°21'42264.7
2017-Nov-23 02:00N 37°45' W 122°23'4 7.5
2017-Nov-23 01:30N 37°48' W 122°21'41349.5
2017-Nov-23 01:30N 37°45' W 122°23'0 0.0
2017-Nov-23 01:01N 37°45' W 122°23'413475.2
2017-Nov-23 01:00N 37°48' W 122°21'0 0.0
2017-Nov-23 00:30N 37°48' W 122°21'41349.5
2017-Nov-23 00:30N 37°45' W 122°23'4 7.5
2017-Nov-23 00:00N 37°48' W 122°21'0 0.0
2017-Nov-22 23:30N 37°48' W 122°21'413475.2
2017-Nov-22 23:30N 37°45' W 122°23'4 7.5
2017-Nov-22 23:00N 37°48' W 122°21'4 7.5
2017-Nov-22 22:30N 37°45' W 122°23'413422.1
2017-Nov-22 22:30N 37°48' W 122°21'0 0.0
2017-Nov-22 22:00N 37°48' W 122°21'413402.5
2017-Nov-22 22:00N 37°45' W 122°23'4 7.4
2017-Nov-22 21:30N 37°48' W 122°21'4 7.4
2017-Nov-22 21:00N 37°45' W 122°23'44478.7
2017-Nov-22 21:00N 37°48' W 122°21'4 7.5
2017-Nov-22 20:30N 37°45' W 122°23'43368.8
2017-Nov-22 20:30N 37°48' W 122°21'4 7.5
2017-Nov-22 20:00N 37°45' W 122°23'43363.9
2017-Nov-22 20:00N 37°48' W 122°21'0 0.2
2017-Nov-22 19:30N 37°48' W 122°21'4834.5
2017-Nov-22 19:30N 37°45' W 122°23'  
2017-Nov-20 00:31N 37°48' W 122°21'41480.5
2017-Nov-20 00:30N 37°45' W 122°23'0 0.0
2017-Nov-20 00:01N 37°45' W 122°23'0 0.0
2017-Nov-19 23:31N 37°45' W 122°23'4 7.4
2017-Nov-19 23:00N 37°48' W 122°21'43326.2
2017-Nov-19 23:00N 37°45' W 122°23'4 7.4
2017-Nov-19 22:30N 37°48' W 122°21'43326.2
2017-Nov-19 22:30N 37°45' W 122°23'0 0.0
2017-Nov-19 22:00N 37°45' W 122°23'4782.6
2017-Nov-19 22:00N 37°48' W 122°21'4 7.5
2017-Nov-19 21:31N 37°45' W 122°23'43326.2
2017-Nov-19 21:30N 37°48' W 122°21'4 7.4
2017-Nov-19 21:01N 37°45' W 122°23'41476.1
2017-Nov-19 21:00N 37°48' W 122°21'4 7.4
2017-Nov-19 20:30N 37°45' W 122°23'41897.9
2017-Nov-19 20:30N 37°48' W 122°21'0 0.0
2017-Nov-19 20:01N 37°48' W 122°21'413285.1
2017-Nov-19 20:01N 37°45' W 122°23'4 7.4
2017-Nov-19 19:31N 37°48' W 122°21'44447.9
2017-Nov-19 19:30N 37°45' W 122°23'0 0.0
2017-Nov-19 19:00N 37°45' W 122°23'41903.5
2017-Nov-19 19:00N 37°48' W 122°21'4 7.4
2017-Nov-19 18:31N 37°45' W 122°23'46652.3
2017-Nov-19 18:30N 37°48' W 122°21'0 0.1
2017-Nov-19 18:01N 37°48' W 122°21'46642.5
2017-Nov-19 18:01N 37°45' W 122°23'4 7.4
2017-Nov-19 17:30N 37°48' W 122°21'44421.8
2017-Nov-19 17:30N 37°45' W 122°23'4 7.4
2017-Nov-19 17:00N 37°48' W 122°21'41660.6
2017-Nov-19 17:00N 37°45' W 122°23'4 7.5
2017-Nov-19 16:31N 37°48' W 122°21'413494.7
2017-Nov-19 16:31N 37°45' W 122°23'4 7.5
2017-Nov-19 16:01N 37°48' W 122°21'46757.1
2017-Nov-19 16:00N 37°45' W 122°23'0 0.0
2017-Nov-19 15:31N 37°45' W 122°23'41930.6
2017-Nov-19 15:30N 37°48' W 122°21'0 0.0
2017-Nov-19 15:00N 37°48' W 122°21'4899.6
2017-Nov-19 15:00N 37°45' W 122°23'4 7.5
2017-Nov-19 14:30N 37°48' W 122°21'44498.2
2017-Nov-19 14:30N 37°45' W 122°23'0 0.0
2017-Nov-19 14:00N 37°45' W 122°23'41927.8
2017-Nov-19 14:00N 37°48' W 122°21'0 0.0
2017-Nov-19 13:31N 37°48' W 122°21'46757.1
2017-Nov-19 13:30N 37°45' W 122°23'0 0.1
2017-Nov-19 13:01N 37°45' W 122°23'41673.8
2017-Nov-19 13:00N 37°48' W 122°21'4 7.5
2017-Nov-19 12:31N 37°45' W 122°23'41350.1
2017-Nov-19 12:30N 37°48' W 122°21'4 7.5
2017-Nov-19 12:00N 37°45' W 122°23'41691.7
2017-Nov-19 12:00N 37°48' W 122°21'0 0.1
2017-Nov-19 11:30N 37°48' W 122°21'41213.1
2017-Nov-19 11:30N 37°45' W 122°23'4 7.5
2017-Nov-19 11:00N 37°48' W 122°21'43293.6
2017-Nov-19 11:00N 37°45' W 122°23'0 0.0
2017-Nov-19 10:31N 37°45' W 122°23'413174.2
2017-Nov-19 10:31N 37°48' W 122°21'0 0.1
2017-Nov-19 10:01N 37°48' W 122°21'41011.1
2017-Nov-19 10:00N 37°45' W 122°23'0 0.0
2017-Nov-19 09:31N 37°45' W 122°23'4691.8
2017-Nov-19 09:30N 37°48' W 122°21'4 7.4
2017-Nov-19 09:01N 37°45' W 122°23'4 7.3
2017-Nov-19 08:31N 37°48' W 122°21'42176.0
2017-Nov-19 08:30N 37°45' W 122°23'0 0.0
2017-Nov-19 08:01N 37°45' W 122°23'4728.0
2017-Nov-19 08:00N 37°48' W 122°21'4 7.3
2017-Nov-19 07:30N 37°45' W 122°22'41446.3
2017-Nov-19 07:30N 37°48' W 122°21'0 0.0
2017-Nov-19 07:01N 37°48' W 122°21'42179.3
2017-Nov-19 07:00N 37°45' W 122°22'0 0.0
2017-Nov-19 06:31N 37°45' W 122°22'44365.3
2017-Nov-19 06:30N 37°48' W 122°21'4 7.3
2017-Nov-19 06:01N 37°45' W 122°22'46538.0
2017-Nov-19 06:00N 37°48' W 122°21'0 0.0
2017-Nov-19 05:31N 37°48' W 122°21'413076.1
2017-Nov-19 05:31N 37°45' W 122°22'4 7.3
2017-Nov-19 05:01N 37°48' W 122°21'44330.1
2017-Nov-19 05:00N 37°45' W 122°22'4 7.2
2017-Nov-19 04:30N 37°48' W 122°21'41438.9
2017-Nov-19 04:30N 37°45' W 122°22'4 7.3
2017-Nov-19 04:01N 37°48' W 122°21'41311.0
2017-Nov-19 04:00N 37°45' W 122°22'4 7.3
2017-Nov-19 03:30N 37°48' W 122°21'4930.5
2017-Nov-19 03:30N 37°45' W 122°22'0 0.2
2017-Nov-19 03:00N 37°45' W 122°22'4816.0
2017-Nov-19 03:00N 37°48' W 122°21'0 0.0
2017-Nov-19 02:30N 37°48' W 122°21'46508.2
2017-Nov-19 02:30N 37°45' W 122°22'0 0.1
2017-Nov-19 02:01N 37°45' W 122°23'42225.2
2017-Nov-19 02:00N 37°48' W 122°21'0 0.0
2017-Nov-19 01:31N 37°48' W 122°21'413351.3
2017-Nov-19 01:31N 37°45' W 122°23'4 7.4
2017-Nov-19 01:00N 37°48' W 122°21'44450.4
2017-Nov-19 01:00N 37°45' W 122°23'0 0.0
2017-Nov-19 00:30N 37°45' W 122°23'44457.0
2017-Nov-19 00:30N 37°48' W 122°21'0 0.0
2017-Nov-19 00:01N 37°48' W 122°21'0 0.0
2017-Nov-18 23:31N 37°48' W 122°21'41893.3
2017-Nov-18 23:30N 37°45' W 122°23'4 7.2
2017-Nov-18 23:01N 37°48' W 122°21'4858.5
2017-Nov-18 23:00N 37°45' W 122°23'0 0.0
2017-Nov-18 22:31N 37°45' W 122°23'4857.2
2017-Nov-18 22:30N 37°48' W 122°21'0 0.0
2017-Nov-18 22:00N 37°48' W 122°21'412877.6
2017-Nov-18 22:00N 37°45' W 122°23'0 0.0
2017-Nov-18 21:31N 37°45' W 122°23'44279.3
2017-Nov-18 21:30N 37°48' W 122°21'4 7.1
2017-Nov-18 21:01N 37°45' W 122°23'42547.8
2017-Nov-18 21:00N 37°48' W 122°21'0 0.0
2017-Nov-18 20:31N 37°48' W 122°21'46384.6
2017-Nov-18 20:30N 37°45' W 122°23'0 0.1
2017-Nov-18 20:00N 37°45' W 122°23'4578.6
2017-Nov-18 20:00N 37°48' W 122°21'0 0.0
2017-Nov-18 19:30N 37°48' W 122°21'46315.9
2017-Nov-18 19:30N 37°45' W 122°23'4 7.0
2017-Nov-18 19:00N 37°48' W 122°21'46342.4
2017-Nov-18 19:00N 37°45' W 122°23'0 0.0
2017-Nov-18 18:31N 37°45' W 122°23'42521.4
2017-Nov-18 18:30N 37°48' W 122°21'0 0.0
2017-Nov-18 18:00N 37°48' W 122°21'3831.7
2017-Nov-18 18:00N 37°45' W 122°23'3 7.0
2017-Nov-18 17:30N 37°48' W 122°21'0 0.1
2017-Nov-18 17:00N 37°48' W 122°21'3540.1
2017-Nov-18 17:00N 37°45' W 122°23'0 0.0
2017-Nov-18 16:30N 37°45' W 122°23'312443.0
2017-Nov-18 16:30N 37°48' W 122°21'3 7.0
2017-Nov-18 16:01N 37°45' W 122°23'33125.5
2017-Nov-18 16:00N 37°48' W 122°21'0 0.0
2017-Nov-18 15:30N 37°48' W 122°21'32079.2
2017-Nov-18 15:30N 37°45' W 122°23'4 7.0
2017-Nov-18 15:00N 37°48' W 122°21'31778.8
2017-Nov-18 15:00N 37°45' W 122°23'4 7.1
2017-Nov-18 14:30N 37°48' W 122°21'41828.8
2017-Nov-18 14:30N 37°45' W 122°23'0 0.1
2017-Nov-18 14:01N 37°45' W 122°23'44306.4
2017-Nov-18 14:00N 37°48' W 122°21'4 7.2
2017-Nov-18 13:31N 37°45' W 122°23'43234.7
2017-Nov-18 13:30N 37°48' W 122°21'0 0.0
2017-Nov-18 13:00N 37°48' W 122°21'41295.8
2017-Nov-18 13:00N 37°45' W 122°23'0 0.0
2017-Nov-18 12:31N 37°45' W 122°23'46525.4
2017-Nov-18 12:30N 37°48' W 122°21'4 7.3
2017-Nov-18 12:01N 37°45' W 122°23'42614.0
2017-Nov-18 12:00N 37°48' W 122°21'4 7.2
2017-Nov-18 11:31N 37°45' W 122°23'32518.5
2017-Nov-18 11:30N 37°48' W 122°21'0 0.0
2017-Nov-18 11:01N 37°48' W 122°21'4258.2
2017-Nov-18 11:00N 37°45' W 122°23'0 0.0
2017-Nov-18 10:31N 37°45' W 122°23'44217.1
2017-Nov-18 10:30N 37°48' W 122°21'0 0.0
2017-Nov-18 10:01N 37°48' W 122°21'4844.7
2017-Nov-18 10:00N 37°45' W 122°23'0 0.0
2017-Nov-18 09:31N 37°45' W 122°23'4906.5
2017-Nov-18 09:30N 37°48' W 122°21'0 0.2
2017-Nov-18 09:00N 37°48' W 122°21'413095.6
2017-Nov-18 09:00N 37°45' W 122°23'4 7.3
2017-Nov-18 08:31N 37°48' W 122°21'4569.1
2017-Nov-18 08:30N 37°45' W 122°23'0 0.0
2017-Nov-18 08:01N 37°45' W 122°23'43248.1
2017-Nov-18 08:00N 37°48' W 122°21'0 0.2
2017-Nov-18 07:31N 37°48' W 122°21'4 7.1
2017-Nov-18 07:01N 37°45' W 122°23'42124.9
2017-Nov-18 07:00N 37°48' W 122°21'0 0.0
2017-Nov-18 06:30N 37°48' W 122°21'42546.0
2017-Nov-18 06:30N 37°45' W 122°23'0 0.2
2017-Nov-18 06:01N 37°45' W 122°23'43209.5
2017-Nov-18 06:00N 37°48' W 122°21'4 7.2
2017-Nov-18 05:31N 37°45' W 122°23'43271.1
2017-Nov-18 05:30N 37°48' W 122°21'4 7.4
2017-Nov-18 05:01N 37°45' W 122°23'46725.0
2017-Nov-18 05:00N 37°48' W 122°21'4 7.5
2017-Nov-18 04:31N 37°45' W 122°23'44483.3
2017-Nov-18 04:30N 37°48' W 122°21'0 0.0
2017-Nov-18 04:00N 37°48' W 122°21'46734.9
2017-Nov-18 04:00N 37°45' W 122°23'0 0.0
2017-Nov-18 03:31N 37°45' W 122°23'42690.0
2017-Nov-18 03:30N 37°48' W 122°21'0 0.0
2017-Nov-18 03:00N 37°48' W 122°21'41918.6
2017-Nov-18 03:00N 37°45' W 122°23'4 7.5
2017-Nov-18 02:30N 37°48' W 122°21'42686.0
2017-Nov-18 02:30N 37°45' W 122°23'0 0.0
2017-Nov-18 02:01N 37°45' W 122°23'413481.0
2017-Nov-18 02:01N 37°48' W 122°21'4 7.5
2017-Nov-18 01:31N 37°45' W 122°23'44500.2
2017-Nov-18 01:30N 37°48' W 122°21'0 0.0
2017-Nov-18 01:00N 37°48' W 122°21'4562.5
2017-Nov-18 01:00N 37°45' W 122°23'0 0.0
2017-Nov-18 00:31N 37°45' W 122°23'42700.1
2017-Nov-18 00:30N 37°48' W 122°21'4 7.5
2017-Nov-18 00:01N 37°45' W 122°23'43370.2
2017-Nov-18 00:00N 37°48' W 122°21'4 7.5
2017-Nov-17 23:31N 37°45' W 122°23'413422.1
2017-Nov-17 23:31N 37°48' W 122°21'4 7.4
2017-Nov-17 23:01N 37°45' W 122°23'413351.4
2017-Nov-17 23:01N 37°48' W 122°21'4 7.4
2017-Nov-17 22:31N 37°45' W 122°23'42672.7
2017-Nov-17 22:30N 37°48' W 122°21'4 7.4
2017-Nov-17 22:01N 37°45' W 122°23'413382.9
2017-Nov-17 22:01N 37°48' W 122°21'4 7.5
2017-Nov-17 21:30N 37°45' W 122°23'46708.4
2017-Nov-17 21:30N 37°48' W 122°21'4 7.5
2017-Nov-17 21:01N 37°45' W 122°23'41452.9
2017-Nov-17 21:00N 37°48' W 122°21'0 0.1
2017-Nov-17 20:30N 37°48' W 122°21'4690.0
2017-Nov-17 20:30N 37°45' W 122°23'4 7.4
2017-Nov-17 20:00N 37°48' W 122°21'0 0.0
2017-Nov-17 19:30N 37°48' W 122°21'4931.2
2017-Nov-17 19:30N 37°45' W 122°23'4 7.3
2017-Nov-17 19:00N 37°48' W 122°21'46498.8
2017-Nov-17 19:00N 37°45' W 122°23'4 7.4
2017-Nov-17 18:31N 37°48' W 122°21'42679.5
2017-Nov-17 18:30N 37°45' W 122°23'0 0.0
2017-Nov-17 18:01N 37°45' W 122°23'4710.2
2017-Nov-17 18:00N 37°48' W 122°21'0 0.0
2017-Nov-17 17:30N 37°48' W 122°21'46711.1
2017-Nov-17 17:30N 37°45' W 122°23'4 7.5
2017-Nov-17 17:00N 37°48' W 122°21'44500.2
2017-Nov-17 17:00N 37°45' W 122°23'4 7.5
2017-Nov-17 16:30N 37°48' W 122°21'0 0.0
2017-Nov-17 16:01N 37°48' W 122°21'41225.5
2017-Nov-17 16:00N 37°45' W 122°23'0 0.1
2017-Nov-17 15:31N 37°45' W 122°23'413371.1
2017-Nov-17 15:31N 37°48' W 122°21'4 7.4
2017-Nov-17 15:01N 37°45' W 122°23'41670.4
2017-Nov-17 15:00N 37°48' W 122°21'0 0.1
2017-Nov-17 14:30N 37°48' W 122°21'44472.2
2017-Nov-17 14:30N 37°45' W 122°23'4 7.5
2017-Nov-17 14:01N 37°48' W 122°21'4705.1
2017-Nov-17 14:00N 37°45' W 122°23'0 0.0
2017-Nov-17 13:31N 37°45' W 122°23'41473.9
2017-Nov-17 13:30N 37°48' W 122°21'0 0.0
2017-Nov-17 13:01N 37°48' W 122°21'41471.8
2017-Nov-17 13:00N 37°45' W 122°23'4 7.3
2017-Nov-17 12:30N 37°48' W 122°21'413206.8
2017-Nov-17 12:30N 37°45' W 122°23'4 7.4
2017-Nov-17 12:00N 37°48' W 122°21'413324.2
2017-Nov-17 12:00N 37°45' W 122°23'0 0.0
2017-Nov-17 11:31N 37°45' W 122°23'413285.0
2017-Nov-17 11:31N 37°48' W 122°21'0 0.0
2017-Nov-17 11:00N 37°48' W 122°21'413265.5
2017-Nov-17 11:00N 37°45' W 122°23'0 0.0
2017-Nov-17 10:31N 37°45' W 122°23'41653.3
2017-Nov-17 10:30N 37°48' W 122°21'0 0.0
2017-Nov-17 10:01N 37°48' W 122°21'413134.9
2017-Nov-17 10:01N 37°45' W 122°23'4 7.3
2017-Nov-17 09:31N 37°48' W 122°21'4 7.3
2017-Nov-17 09:01N 37°45' W 122°23'41457.3
2017-Nov-17 09:00N 37°48' W 122°21'4 7.3
2017-Nov-17 08:30N 37°45' W 122°23'41873.6
2017-Nov-17 08:30N 37°48' W 122°21'4 7.3
2017-Nov-17 08:00N 37°45' W 122°23'41646.8
2017-Nov-17 08:00N 37°48' W 122°21'4 7.3
2017-Nov-17 07:30N 37°45' W 122°23'44391.4
2017-Nov-17 07:30N 37°48' W 122°21'4 7.3
2017-Nov-17 07:00N 37°45' W 122°22'41633.1
2017-Nov-17 07:00N 37°48' W 122°21'4 7.3
2017-Nov-17 06:31N 37°45' W 122°22'41630.6
2017-Nov-17 06:30N 37°48' W 122°21'0 0.0
2017-Nov-17 06:01N 37°48' W 122°21'4 7.2
2017-Nov-17 05:30N 37°45' W 122°22'41453.8
2017-Nov-17 05:30N 37°48' W 122°21'0 0.0
2017-Nov-17 05:00N 37°48' W 122°21'4652.3
2017-Nov-17 05:00N 37°45' W 122°22'4 7.4
2017-Nov-17 04:31N 37°48' W 122°21'42199.0
2017-Nov-17 04:30N 37°45' W 122°23'0 0.1
2017-Nov-17 04:01N 37°45' W 122°22'4936.0
2017-Nov-17 04:00N 37°48' W 122°21'4 7.3
2017-Nov-17 03:31N 37°45' W 122°22'4694.4
2017-Nov-17 03:30N 37°48' W 122°21'4 7.4
2017-Nov-17 03:01N 37°45' W 122°22'4264.3
2017-Nov-17 03:00N 37°48' W 122°21'0 0.0
2017-Nov-17 02:31N 37°48' W 122°21'42656.5
2017-Nov-17 02:30N 37°45' W 122°22'4 7.4
2017-Nov-17 02:00N 37°48' W 122°21'0 0.0
2017-Nov-17 01:30N 37°48' W 122°21'44418.4
2017-Nov-17 01:30N 37°45' W 122°22'4 7.4
2017-Nov-17 01:01N 37°48' W 122°21'4416.3
2017-Nov-17 01:00N 37°45' W 122°22'0 0.0
2017-Nov-17 00:31N 37°45' W 122°22'43315.7
2017-Nov-17 00:30N 37°48' W 122°21'0 0.0
2017-Nov-17 00:00N 37°48' W 122°21'44443.9
2017-Nov-17 00:00N 37°45' W 122°23'4 7.4
2017-Nov-16 23:31N 37°48' W 122°21'413292.3
2017-Nov-16 23:31N 37°45' W 122°23'0 0.0
2017-Nov-16 23:01N 37°45' W 122°23'413272.6
2017-Nov-16 23:01N 37°48' W 122°21'4 7.4
2017-Nov-16 22:31N 37°45' W 122°23'44424.2
2017-Nov-16 22:30N 37°48' W 122°21'0 0.0
2017-Nov-16 22:01N 37°48' W 122°21'4883.5
2017-Nov-16 22:00N 37°45' W 122°23'4 7.4
2017-Nov-16 21:30N 37°48' W 122°21'41011.9
2017-Nov-16 21:30N 37°45' W 122°23'4 7.4
2017-Nov-16 21:00N 37°48' W 122°21'0 0.0
2017-Nov-16 20:31N 37°48' W 122°21'44384.9
2017-Nov-16 20:30N 37°45' W 122°23'4 7.3
2017-Nov-16 20:01N 37°48' W 122°21'413115.3
2017-Nov-16 20:00N 37°45' W 122°23'0 0.1
2017-Nov-16 19:31N 37°45' W 122°22'42616.9
2017-Nov-16 19:30N 37°48' W 122°21'4 7.3
2017-Nov-16 19:01N 37°45' W 122°22'413084.6
2017-Nov-16 19:01N 37°48' W 122°21'0 0.0
2017-Nov-16 18:31N 37°48' W 122°21'41013.4
2017-Nov-16 18:30N 37°45' W 122°23'0 0.0
2017-Nov-16 18:01N 37°45' W 122°23'413174.2
2017-Nov-16 18:01N 37°48' W 122°21'4 7.3
2017-Nov-16 17:31N 37°45' W 122°22'413064.8
2017-Nov-16 17:31N 37°48' W 122°21'0 0.0
2017-Nov-16 17:00N 37°48' W 122°21'412976.8
2017-Nov-16 17:00N 37°45' W 122°22'4 7.2
2017-Nov-16 16:30N 37°48' W 122°21'43288.6
2017-Nov-16 16:30N 37°45' W 122°23'0 0.0
2017-Nov-16 16:01N 37°45' W 122°23'413245.9
2017-Nov-16 16:01N 37°48' W 122°21'4 7.4
2017-Nov-16 15:31N 37°45' W 122°23'42201.1
2017-Nov-16 15:30N 37°48' W 122°21'4 7.4
2017-Nov-16 15:01N 37°45' W 122°23'46656.0
2017-Nov-16 15:01N 37°48' W 122°21'0 0.0
2017-Nov-16 14:30N 37°48' W 122°21'42656.5
2017-Nov-16 14:30N 37°45' W 122°22'4 7.4
2017-Nov-16 14:00N 37°48' W 122°21'4881.0
2017-Nov-16 14:00N 37°45' W 122°22'4 7.4
2017-Nov-16 13:31N 37°48' W 122°21'44411.7
2017-Nov-16 13:30N 37°45' W 122°22'0 0.0
2017-Nov-16 13:00N 37°45' W 122°22'4776.2
2017-Nov-16 13:00N 37°48' W 122°21'0 0.0
2017-Nov-16 12:30N 37°48' W 122°21'0 0.0
2017-Nov-16 12:00N 37°48' W 122°21'4393.0
2017-Nov-16 12:00N 37°45' W 122°22'4 7.6
2017-Nov-16 11:30N 37°48' W 122°21'44453.9
2017-Nov-16 11:30N 37°45' W 122°22'4 7.4
2017-Nov-16 11:01N 37°48' W 122°21'44447.3
2017-Nov-16 11:00N 37°45' W 122°22'4 7.4
2017-Nov-16 10:31N 37°48' W 122°21'4783.6
2017-Nov-16 10:30N 37°45' W 122°22'4 7.5
2017-Nov-16 10:01N 37°48' W 122°21'43342.8
2017-Nov-16 10:00N 37°45' W 122°23'4 7.4
2017-Nov-16 09:31N 37°48' W 122°21'41213.8
2017-Nov-16 09:30N 37°45' W 122°23'0 0.0
2017-Nov-16 09:01N 37°45' W 122°23'43332.9
2017-Nov-16 09:00N 37°48' W 122°21'4 7.4
2017-Nov-16 08:31N 37°45' W 122°23'42662.4
2017-Nov-16 08:30N 37°48' W 122°21'0 0.0
2017-Nov-16 08:00N 37°48' W 122°21'42644.6
2017-Nov-16 08:00N 37°45' W 122°22'4 7.4
2017-Nov-16 07:31N 37°48' W 122°21'42654.5
2017-Nov-16 07:30N 37°45' W 122°22'4 7.4
2017-Nov-16 07:00N 37°48' W 122°21'42654.5
2017-Nov-16 07:00N 37°45' W 122°22'4 7.4
2017-Nov-16 06:30N 37°48' W 122°21'42650.6
2017-Nov-16 06:30N 37°45' W 122°22'4 7.4
2017-Nov-16 06:00N 37°48' W 122°21'42205.5
2017-Nov-16 06:00N 37°45' W 122°22'4 7.3
2017-Nov-16 05:30N 37°48' W 122°21'4824.6
2017-Nov-16 05:30N 37°45' W 122°22'4 7.5
2017-Nov-16 05:01N 37°48' W 122°21'42197.2
2017-Nov-16 05:00N 37°45' W 122°22'0 0.0
2017-Nov-16 04:31N 37°45' W 122°22'413262.6
2017-Nov-16 04:31N 37°48' W 122°21'0 0.0
2017-Nov-16 04:00N 37°48' W 122°21'413282.4
2017-Nov-16 04:00N 37°45' W 122°22'4 7.4
2017-Nov-16 03:30N 37°48' W 122°21'42656.5
2017-Nov-16 03:30N 37°45' W 122°22'4 7.4
2017-Nov-16 03:01N 37°48' W 122°21'42217.0
2017-Nov-16 03:00N 37°45' W 122°22'0 0.1
2017-Nov-16 02:31N 37°45' W 122°22'46665.8
2017-Nov-16 02:31N 37°48' W 122°21'0 0.0
2017-Nov-16 02:00N 37°48' W 122°21'43335.9
2017-Nov-16 02:00N 37°45' W 122°23'4 7.5
2017-Nov-16 01:31N 37°48' W 122°21'4 7.4
2017-Nov-16 01:00N 37°45' W 122°23'41219.7
2017-Nov-16 01:00N 37°48' W 122°21'4 7.5
2017-Nov-16 00:30N 37°45' W 122°23'4958.3
2017-Nov-16 00:30N 37°48' W 122°21'4 7.5
2017-Nov-16 00:01N 37°45' W 122°23'42229.6
2017-Nov-16 00:00N 37°48' W 122°21'0 0.1
2017-Nov-15 23:31N 37°48' W 122°21'4781.2
2017-Nov-15 23:30N 37°45' W 122°23'0 0.0
2017-Nov-15 23:01N 37°45' W 122°23'4 7.4
2017-Nov-15 22:31N 37°48' W 122°21'4379.4
2017-Nov-15 22:30N 37°45' W 122°23'4 7.5
2017-Nov-15 22:01N 37°48' W 122°21'413222.3
2017-Nov-15 22:01N 37°45' W 122°23'4 7.3
2017-Nov-15 21:30N 37°48' W 122°21'4250.2
2017-Nov-15 21:29N 37°45' W 122°23'4 7.6
2017-Nov-15 21:01N 37°48' W 122°21'0 0.0
2017-Nov-15 20:31N 37°48' W 122°21'43291.0
2017-Nov-15 20:30N 37°45' W 122°23'4 7.5
2017-Nov-15 20:01N 37°48' W 122°21'4534.5
2017-Nov-15 20:00N 37°45' W 122°23'4 7.5
2017-Nov-15 19:31N 37°48' W 122°21'4667.2
2017-Nov-15 19:30N 37°45' W 122°23'4 7.5
2017-Nov-15 19:01N 37°48' W 122°21'4890.9
2017-Nov-15 19:00N 37°45' W 122°23'4 7.5
2017-Nov-15 18:31N 37°48' W 122°21'0 0.1
2017-Nov-15 18:01N 37°48' W 122°21'41337.8
2017-Nov-15 18:00N 37°45' W 122°23'0 0.0
2017-Nov-15 17:31N 37°45' W 122°23'4785.8
2017-Nov-15 17:30N 37°48' W 122°21'4 7.5
2017-Nov-15 17:01N 37°45' W 122°23'41905.6
2017-Nov-15 17:00N 37°48' W 122°21'0 0.0
2017-Nov-15 16:31N 37°48' W 122°21'42207.7
2017-Nov-15 16:30N 37°45' W 122°23'0 0.1
2017-Nov-15 16:00N 37°45' W 122°23'413338.9
2017-Nov-15 16:00N 37°48' W 122°21'0 0.1
2017-Nov-15 15:31N 37°48' W 122°21'0 0.0
2017-Nov-15 15:00N 37°48' W 122°21'46593.7
2017-Nov-15 15:00N 37°45' W 122°23'0 0.0
2017-Nov-15 14:31N 37°45' W 122°23'4 7.3
2017-Nov-15 14:01N 37°48' W 122°21'4877.9
2017-Nov-15 14:00N 37°45' W 122°23'0 0.0
2017-Nov-15 13:30N 37°45' W 122°23'42633.6
2017-Nov-15 13:30N 37°48' W 122°21'4 7.3
2017-Nov-15 13:00N 37°45' W 122°23'41878.3
2017-Nov-15 13:00N 37°48' W 122°21'0 0.1
2017-Nov-15 12:31N 37°48' W 122°21'41111.6
2017-Nov-15 12:30N 37°45' W 122°23'0 0.0
2017-Nov-15 12:00N 37°45' W 122°23'41195.3
2017-Nov-15 12:00N 37°48' W 122°21'4 7.4
2017-Nov-15 11:30N 37°45' W 122°23'4691.0
2017-Nov-15 11:30N 37°48' W 122°21'4 7.4
2017-Nov-15 11:01N 37°45' W 122°23'413202.9
2017-Nov-15 11:01N 37°48' W 122°21'4 7.3
2017-Nov-15 10:31N 37°45' W 122°23'42636.7
2017-Nov-15 10:30N 37°48' W 122°21'4 7.3
2017-Nov-15 10:00N 37°45' W 122°23'41883.9
2017-Nov-15 10:00N 37°48' W 122°21'4 7.4
2017-Nov-15 09:31N 37°45' W 122°23'42197.9
2017-Nov-15 09:30N 37°48' W 122°21'0 0.0
2017-Nov-15 09:00N 37°48' W 122°21'46583.9
2017-Nov-15 09:00N 37°45' W 122°23'4 7.3
2017-Nov-15 08:31N 37°48' W 122°21'41197.1
2017-Nov-15 08:30N 37°45' W 122°23'4 7.3
2017-Nov-15 08:01N 37°48' W 122°21'41878.3
2017-Nov-15 08:00N 37°45' W 122°23'4 7.3
2017-Nov-15 07:31N 37°48' W 122°21'41875.5
2017-Nov-15 07:30N 37°45' W 122°23'4 7.3
2017-Nov-15 07:01N 37°48' W 122°21'4 7.2
2017-Nov-15 06:30N 37°45' W 122°23'46564.4
2017-Nov-15 06:30N 37°48' W 122°21'0 0.0
2017-Nov-15 06:01N 37°48' W 122°21'4 7.3
2017-Nov-15 05:30N 37°45' W 122°23'43282.2
2017-Nov-15 05:30N 37°48' W 122°21'0 0.1
2017-Nov-15 05:00N 37°48' W 122°21'46544.9
2017-Nov-15 05:00N 37°45' W 122°23'4 7.3
2017-Nov-15 04:31N 37°48' W 122°21'413300.0
2017-Nov-15 04:31N 37°45' W 122°23'0 0.0
2017-Nov-15 04:00N 37°45' W 122°23'44510.1
2017-Nov-15 04:00N 37°48' W 122°21'4 7.5
2017-Nov-15 03:30N 37°45' W 122°23'413436.2
2017-Nov-15 03:30N 37°48' W 122°21'0 0.0
2017-Nov-15 03:01N 37°48' W 122°21'0 0.0
2017-Nov-15 02:31N 37°48' W 122°21'4672.6
2017-Nov-15 02:30N 37°45' W 122°23'4 7.5
2017-Nov-15 02:01N 37°48' W 122°21'42686.7
2017-Nov-15 02:00N 37°45' W 122°23'4 7.5
2017-Nov-15 01:31N 37°48' W 122°21'4671.7
2017-Nov-15 01:30N 37°45' W 122°23'4 7.5
2017-Nov-15 01:01N 37°48' W 122°21'4243.9
2017-Nov-15 01:00N 37°45' W 122°23'0 0.0
2017-Nov-15 00:31N 37°45' W 122°23'41217.7
2017-Nov-15 00:30N 37°48' W 122°21'0 0.0
2017-Nov-15 00:01N 37°48' W 122°21'4888.0
2017-Nov-15 00:00N 37°45' W 122°23'4 7.5
2017-Nov-14 23:31N 37°48' W 122°21'0 0.0
2017-Nov-14 23:00N 37°48' W 122°21'42633.6
2017-Nov-14 23:00N 37°45' W 122°23'4 7.5
2017-Nov-14 22:31N 37°48' W 122°21'42217.4
2017-Nov-14 22:30N 37°45' W 122°23'0 0.0
2017-Nov-14 22:00N 37°45' W 122°23'42645.3
2017-Nov-14 22:00N 37°48' W 122°21'0 0.0
2017-Nov-14 21:31N 37°48' W 122°21'4 7.3
2017-Nov-14 21:01N 37°45' W 122°23'4778.0
2017-Nov-14 21:00N 37°48' W 122°21'4 7.4
2017-Nov-14 20:31N 37°45' W 122°23'41471.8
2017-Nov-14 20:30N 37°48' W 122°21'4 7.4
2017-Nov-14 20:01N 37°45' W 122°23'4601.2
2017-Nov-14 20:00N 37°48' W 122°21'0 0.0
2017-Nov-14 19:30N 37°48' W 122°21'413226.4
2017-Nov-14 19:30N 37°45' W 122°23'4 7.4
2017-Nov-14 19:00N 37°48' W 122°21'41017.4
2017-Nov-14 19:00N 37°45' W 122°23'0 0.0
2017-Nov-14 18:30N 37°45' W 122°23'413226.4
2017-Nov-14 18:30N 37°48' W 122°21'4 7.4
2017-Nov-14 18:00N 37°45' W 122°23'46613.2
2017-Nov-14 18:00N 37°48' W 122°21'4 7.4
2017-Nov-14 17:31N 37°45' W 122°23'41875.5
2017-Nov-14 17:30N 37°48' W 122°21'4 7.3
2017-Nov-14 17:00N 37°45' W 122°23'4825.2
2017-Nov-14 17:00N 37°48' W 122°21'0 0.2
2017-Nov-14 16:30N 37°48' W 122°21'42179.3
2017-Nov-14 16:30N 37°45' W 122°23'4 7.3
2017-Nov-14 16:00N 37°48' W 122°21'41195.3
2017-Nov-14 16:00N 37°45' W 122°23'4 7.4
2017-Nov-14 15:30N 37°48' W 122°21'41097.3
2017-Nov-14 15:30N 37°45' W 122°23'0 0.0
2017-Nov-14 15:00N 37°45' W 122°23'413148.3
2017-Nov-14 15:00N 37°48' W 122°21'4 7.3
2017-Nov-14 14:30N 37°45' W 122°23'41872.8
2017-Nov-14 14:30N 37°48' W 122°21'0 0.0
2017-Nov-14 14:00N 37°48' W 122°21'44382.8
2017-Nov-14 14:00N 37°45' W 122°23'0 0.0
2017-Nov-14 13:31N 37°45' W 122°23'4345.0
2017-Nov-14 13:30N 37°48' W 122°21'0 0.0
2017-Nov-14 13:00N 37°48' W 122°21'43272.4
2017-Nov-14 13:00N 37°45' W 122°23'4 7.3
2017-Nov-14 12:31N 37°48' W 122°21'42194.0
2017-Nov-14 12:30N 37°45' W 122°23'4 7.3
2017-Nov-14 12:01N 37°48' W 122°21'43264.1
2017-Nov-14 12:00N 37°45' W 122°23'4 7.3
2017-Nov-14 11:31N 37°48' W 122°21'46554.6
2017-Nov-14 11:30N 37°45' W 122°23'4 7.3
2017-Nov-14 11:01N 37°48' W 122°21'43269.0
2017-Nov-14 11:00N 37°45' W 122°23'0 0.0
2017-Nov-14 10:31N 37°45' W 122°23'46564.4
2017-Nov-14 10:31N 37°48' W 122°21'4 7.3
2017-Nov-14 10:01N 37°45' W 122°23'41312.9
2017-Nov-14 10:00N 37°48' W 122°21'4 7.3
2017-Nov-14 09:31N 37°45' W 122°23'41191.8
2017-Nov-14 09:30N 37°48' W 122°21'0 0.0
2017-Nov-14 09:00N 37°48' W 122°21'41092.4
2017-Nov-14 09:00N 37°45' W 122°23'0 0.0
2017-Nov-14 08:30N 37°45' W 122°23'43267.6
2017-Nov-14 08:30N 37°48' W 122°21'4 7.3
2017-Nov-14 08:01N 37°45' W 122°23'44356.8
2017-Nov-14 08:00N 37°48' W 122°21'0 0.0
2017-Nov-14 07:31N 37°48' W 122°21'43262.7
2017-Nov-14 07:30N 37°45' W 122°23'4 7.3
2017-Nov-14 07:01N 37°48' W 122°21'42178.4
2017-Nov-14 07:00N 37°45' W 122°23'4 7.3
2017-Nov-14 06:30N 37°48' W 122°21'41305.1
2017-Nov-14 06:30N 37°45' W 122°23'4 7.3
2017-Nov-14 06:00N 37°48' W 122°21'41008.2
2017-Nov-14 06:00N 37°45' W 122°23'0 0.1
2017-Nov-14 05:31N 37°45' W 122°23'41002.8
2017-Nov-14 05:30N 37°48' W 122°21'4 7.3
2017-Nov-14 05:01N 37°45' W 122°23'41658.2
2017-Nov-14 05:00N 37°48' W 122°21'0 0.0
2017-Nov-14 04:30N 37°48' W 122°21'413213.6
2017-Nov-14 04:30N 37°45' W 122°22'0 0.0
2017-Nov-14 04:00N 37°45' W 122°22'4 7.3
2017-Nov-14 03:30N 37°48' W 122°21'41206.0
2017-Nov-14 03:30N 37°45' W 122°23'4 7.4
2017-Nov-14 03:00N 37°48' W 122°21'413358.4
2017-Nov-14 03:00N 37°45' W 122°23'4 7.4
2017-Nov-14 02:30N 37°48' W 122°21'42675.6
2017-Nov-14 02:30N 37°45' W 122°23'4 7.5
2017-Nov-14 02:00N 37°48' W 122°21'42675.6
2017-Nov-14 02:00N 37°45' W 122°23'4 7.4
2017-Nov-14 01:30N 37°48' W 122°21'44459.3
2017-Nov-14 01:30N 37°45' W 122°23'4 7.4
2017-Nov-14 01:00N 37°48' W 122°21'44452.8
2017-Nov-14 01:00N 37°45' W 122°23'0 0.0
2017-Nov-14 00:31N 37°45' W 122°23'41337.8
2017-Nov-14 00:30N 37°48' W 122°21'4 7.5
2017-Nov-14 00:01N 37°45' W 122°23'413377.8
2017-Nov-14 00:01N 37°48' W 122°21'0 0.0
2017-Nov-13 23:30N 37°48' W 122°21'42671.7
2017-Nov-13 23:30N 37°45' W 122°23'4 7.5
2017-Nov-13 23:01N 37°48' W 122°21'42229.6
2017-Nov-13 23:00N 37°45' W 122°23'4 7.5
2017-Nov-13 22:31N 37°48' W 122°21'41672.2
2017-Nov-13 22:30N 37°45' W 122°23'4 7.5
2017-Nov-13 22:00N 37°48' W 122°21'44459.3
2017-Nov-13 22:00N 37°45' W 122°23'  

Dump ship's entire track history